North Eastham, MA (02651)

12:44 PM EDT on May 26, 2015 (GMT -0400)
Eastha, MA | | Change Station
CLOSE
Current Station
Personal Weather Station
Location: Eastham, MA
Elevation: 46 ft
Nearby Weather Stations

Elev 46 ft 41.84 °N, 69.99 °W | Updated 2 minutes ago

Partly Cloudy
Partly Cloudy
71.6 °F
Feels Like 73 °F
N
1.0
Wind Variable Wind from WSW
Gusts 10.0 mph

Today
High -- | Low -- °F
--% Chance of Precip.
Yesterday
High -- | Low -- °F
Precip. -- in
5:10 AM 8:03 PM
First Quarter, 59% visible
Pressure 30.23 in
Visibility 10.0 miles
Clouds Clear
Heat Index 73 °F
Dew Point 63 °F
Humidity 75%
Rainfall 0.00 in
Snow Depth Not available.
UV 11 out of 12
Pollen 10.70 out of 12
Air Quality Not available.
Flu Activity Local Activity
METAR KCQX 261552Z AUTO 22014G23KT 10SM CLR 19/16 A3023 RMK AO2 PK WND 22027/1538 SLP237 T01940156 $

More Conditions Fewer Conditions

Pressure 30.23 in
Visibility 10.0 miles
Clouds Clear
Heat Index 73 °F
Dew Point 63 °F
Humidity 75%
Rainfall 0.00 in
Snow Depth Not available.
UV 11 out of 12
Pollen 10.70 out of 12
Air Quality Not available.
Flu Activity Local Activity
METAR KCQX 261552Z AUTO 22014G23KT 10SM CLR 19/16 A3023 RMK AO2 PK WND 22027/1538 SLP237 T01940156 $

More Conditions Fewer Conditions

10-Day Weather Forecast

Almanac

Astronomy

May. 26, 2015 Rise Set
Actual Time
Civil Twilight
Nautical Twilight
Astronomical Twilight
Moon
Length of Visible Light
Length of Day
Tomorrow will be .
, % of the Moon is Illuminated

Today's Extremes

State Highs State Lows

Community

WunderPhotos

Upload Photos

1,824,370 photos uploaded!

WunderBlogs® & News

Nearby

Air Quality

  Air Quality AQ Index Pollutant
Not available.

Snow Depth

Station Depth Elevation

Earthquake Activity

City Distance Mag. Time & Date
Minimum magnitude displayed is 2.5.

Coastal Water Temperatures

Place Temperature

Stations

Nearby Weather Stations

Station Location Temp. Windchill Dew Point Humidity Wind Precip. Elev Updated Type